Time;durP1;ratioP1;P1;durP2;ratioP2;P2;SDS_P1;SDS_P2;PMS_P1;PMS_P2;Temp;Humidity;BMP_temperature;BMP_pressure;BME280_temperature;BME280_humidity;BME280_pressure;Samples;Min_cycle;Max_cycle;Signal;HPM_P1;HPM_P2
2023/09/21 00:00:08;;;;;;;2.35;1.50;;;;;;;17.73;100.00;95796.94;5042225;28;20191;-58
2023/09/21 00:02:35;;;;;;;2.88;1.50;;;;;;;17.71;100.00;95799.00;5041748;28;20329;-57
2023/09/21 00:05:03;;;;;;;2.65;1.50;;;;;;;17.69;100.00;95795.69;5041962;28;20528;-56
2023/09/21 00:07:31;;;;;;;2.03;1.83;;;;;;;17.66;100.00;95793.44;5042172;28;20199;-56
2023/09/21 00:09:57;;;;;;;2.70;1.60;;;;;;;17.65;100.00;95800.63;5041397;28;20211;-56
2023/09/21 00:12:25;;;;;;;1.95;1.85;;;;;;;17.65;100.00;95795.28;5041536;28;20211;-58
2023/09/21 00:14:51;;;;;;;2.45;1.75;;;;;;;17.62;100.00;95790.38;5041291;28;20636;-57
2023/09/21 00:17:18;;;;;;;1.80;1.70;;;;;;;17.59;100.00;95796.13;5041593;28;20200;-56
2023/09/21 00:19:45;;;;;;;2.00;1.83;;;;;;;17.60;100.00;95791.59;5040869;28;20217;-58
2023/09/21 00:22:13;;;;;;;2.45;1.83;;;;;;;17.55;100.00;95789.50;5041820;28;20218;-57
2023/09/21 00:24:40;;;;;;;3.97;1.88;;;;;;;17.53;100.00;95783.56;5041196;28;20207;-57
2023/09/21 00:27:07;;;;;;;1.75;1.65;;;;;;;17.51;100.00;95776.75;5041420;28;20314;-57
2023/09/21 00:29:35;;;;;;;3.72;2.20;;;;;;;17.51;100.00;95782.09;5041229;28;20204;-57
2023/09/21 00:32:02;;;;;;;1.67;1.58;;;;;;;17.50;100.00;95775.94;5042091;28;20227;-57
2023/09/21 00:34:29;;;;;;;3.35;1.90;;;;;;;17.50;100.00;95767.91;5041469;28;20215;-56
2023/09/21 00:36:57;;;;;;;2.20;1.73;;;;;;;17.52;100.00;95762.38;5041456;28;20207;-57
2023/09/21 00:39:24;;;;;;;3.97;2.10;;;;;;;17.50;100.00;95764.44;5041605;28;20219;-57
2023/09/21 00:41:50;;;;;;;2.30;2.10;;;;;;;17.50;100.00;95759.09;5043055;28;20219;-57
2023/09/21 00:44:17;;;;;;;2.05;1.85;;;;;;;17.47;100.00;95748.78;5041925;28;20231;-57
2023/09/21 00:46:45;;;;;;;1.98;1.73;;;;;;;17.46;100.00;95750.66;5041696;28;20203;-58
2023/09/21 00:49:13;;;;;;;1.83;1.73;;;;;;;17.44;100.00;95752.72;5041970;28;20208;-57
2023/09/21 00:51:40;;;;;;;3.85;2.20;;;;;;;17.42;100.00;95752.94;5041737;28;20620;-56
2023/09/21 00:54:12;;;;;;;2.33;2.13;;;;;;;17.44;100.00;95750.03;5042002;28;20601;-55
2023/09/21 00:56:39;;;;;;;2.33;2.13;;;;;;;17.44;100.00;95744.69;5041735;28;20294;-55
2023/09/21 00:59:06;;;;;;;2.10;2.00;;;;;;;17.43;100.00;95743.88;5042670;28;20203;-56
2023/09/21 01:01:32;;;;;;;3.08;1.95;;;;;;;17.40;100.00;95743.47;5042001;28;20238;-56
2023/09/21 01:04:06;;;;;;;1.83;1.73;;;;;;;17.39;100.00;95747.97;5042431;28;20207;-56
2023/09/21 01:06:33;;;;;;;4.18;1.83;;;;;;;17.40;100.00;95735.44;5042971;28;20210;-57
2023/09/21 01:09:03;;;;;;;1.77;1.67;;;;;;;17.38;100.00;95727.66;5042464;28;20529;-57
2023/09/21 01:11:30;;;;;;;2.72;1.55;;;;;;;17.40;100.00;95732.75;5043038;28;20229;-56
2023/09/21 01:13:57;;;;;;;2.47;1.48;;;;;;;17.40;100.00;95722.91;5041622;28;20337;-56
2023/09/21 01:16:24;;;;;;;2.20;1.58;;;;;;;17.38;100.00;95713.47;5041078;28;20217;-57
2023/09/21 01:18:52;;;;;;;3.88;1.90;;;;;;;17.37;100.00;95723.31;5040689;28;20213;-57
2023/09/21 01:21:27;;;;;;;4.82;2.03;;;;;;;17.39;100.00;95720.47;5041356;28;20633;-57
2023/09/21 01:23:55;;;;;;;1.98;1.80;;;;;;;17.37;100.00;95707.28;5042279;28;20214;-57
2023/09/21 01:26:21;;;;;;;2.33;1.60;;;;;;;17.34;100.00;95704.22;5041692;28;20322;-56
2023/09/21 01:28:48;;;;;;;4.72;1.60;;;;;;;17.33;100.00;95699.88;5041635;28;20199;-56
2023/09/21 01:31:15;;;;;;;3.55;1.67;;;;;;;17.32;100.00;95700.94;5041529;28;20707;-57
2023/09/21 01:33:42;;;;;;;4.07;1.73;;;;;;;17.34;100.00;95706.88;5041284;28;20589;-57
2023/09/21 01:36:10;;;;;;;1.90;1.80;;;;;;;17.37;100.00;95701.13;5045181;28;20196;-57
2023/09/21 01:38:37;;;;;;;2.05;1.73;;;;;;;17.35;100.00;95704.00;5045156;28;20207;-56
2023/09/21 01:41:06;;;;;;;1.77;1.67;;;;;;;17.31;100.00;95702.78;5045624;28;20237;-57
2023/09/21 01:43:33;;;;;;;1.92;1.77;;;;;;;17.31;100.00;95700.09;5045695;28;20214;-56
2023/09/21 01:45:59;;;;;;;7.10;2.35;;;;;;;17.26;100.00;95693.72;5045749;28;20633;-55
2023/09/21 01:48:27;;;;;;;3.35;1.95;;;;;;;17.28;100.00;95689.00;5044908;28;20206;-56
2023/09/21 01:50:57;;;;;;;3.00;2.15;;;;;;;17.25;100.00;95687.56;5045388;28;20675;-56
2023/09/21 01:53:24;;;;;;;3.10;1.63;;;;;;;17.21;100.00;95672.16;5051030;28;20214;-56
2023/09/21 01:55:51;;;;;;;2.05;1.83;;;;;;;17.21;100.00;95674.84;5049962;28;20211;-57
2023/09/21 01:58:23;;;;;;;2.67;2.00;;;;;;;17.18;100.00;95677.94;5049416;28;20208;-57
2023/09/21 02:00:49;;;;;;;4.00;2.10;;;;;;;17.17;100.00;95678.94;5045293;28;20230;-58
2023/09/21 02:03:18;;;;;;;1.83;1.70;;;;;;;17.17;100.00;95684.28;5044328;28;20208;-58
2023/09/21 02:05:46;;;;;;;2.33;1.38;;;;;;;17.17;100.00;95678.94;5044260;28;20199;-56
2023/09/21 02:08:13;;;;;;;2.88;1.67;;;;;;;17.16;100.00;95675.44;5044102;28;20594;-56
2023/09/21 02:10:41;;;;;;;2.40;1.88;;;;;;;17.12;100.00;95670.72;5044344;28;20236;-57
2023/09/21 02:13:08;;;;;;;2.50;1.80;;;;;;;17.11;100.00;95666.44;5043412;28;20212;-56
2023/09/21 02:15:38;;;;;;;3.15;1.92;;;;;;;17.12;100.00;95660.03;5044140;28;20212;-57
2023/09/21 02:18:05;;;;;;;6.07;1.98;;;;;;;17.13;100.00;95661.69;5044599;28;20294;-58
2023/09/21 02:20:35;;;;;;;2.35;2.15;;;;;;;17.09;100.00;95663.94;5044478;28;20222;-57
2023/09/21 02:23:02;;;;;;;2.05;1.80;;;;;;;17.08;100.00;95666.81;5044330;28;20210;-57
2023/09/21 02:25:30;;;;;;;2.13;2.00;;;;;;;17.05;100.00;95664.56;5043833;28;20640;-56
2023/09/21 02:27:56;;;;;;;1.90;1.80;;;;;;;17.04;100.00;95668.28;5042784;28;20320;-56
2023/09/21 02:30:24;;;;;;;2.30;1.65;;;;;;;17.05;100.00;95664.56;5043812;28;20208;-58
2023/09/21 02:32:53;;;;;;;3.13;1.77;;;;;;;17.06;100.00;95660.88;5043502;28;20231;-56
2023/09/21 02:35:23;;;;;;;3.47;1.90;;;;;;;17.07;100.00;95651.84;5044425;28;20599;-57
2023/09/21 02:37:50;;;;;;;2.30;1.80;;;;;;;17.01;100.00;95647.31;5044007;28;20203;-57
2023/09/21 02:40:19;;;;;;;1.83;1.70;;;;;;;17.04;100.00;95644.25;5044439;28;20207;-57
2023/09/21 02:42:47;;;;;;;6.38;2.25;;;;;;;17.01;100.00;95642.78;5044083;28;20593;-56
2023/09/21 02:45:14;;;;;;;2.83;1.90;;;;;;;17.02;100.00;95643.63;5045750;28;20215;-56
2023/09/21 02:47:41;;;;;;;4.05;2.00;;;;;;;17.01;100.00;95641.97;5044532;28;20535;-56
2023/09/21 02:50:21;;;;;;;2.78;1.92;;;;;;;17.02;100.00;95643.63;5044267;28;20621;-56
2023/09/21 02:52:49;;;;;;;4.15;2.33;;;;;;;16.99;100.00;95652.03;5044880;28;20226;-55
2023/09/21 02:55:18;;;;;;;1.92;1.50;;;;;;;16.99;100.00;95639.53;5043131;28;20203;-56
2023/09/21 02:57:45;;;;;;;2.15;1.90;;;;;;;16.99;100.00;95639.53;5043875;28;20236;-56
2023/09/21 03:00:19;;;;;;;2.35;2.15;;;;;;;17.00;100.00;95643.00;5043140;28;20199;-56
2023/09/21 03:02:45;;;;;;;2.10;1.90;;;;;;;16.99;100.00;95634.19;5043576;28;20192;-56
2023/09/21 03:05:13;;;;;;;2.63;2.00;;;;;;;17.01;100.00;95639.28;5042451;28;20557;-58
2023/09/21 03:07:43;;;;;;;2.05;1.95;;;;;;;17.00;100.00;95637.66;5044028;28;20299;-57
2023/09/21 03:10:10;;;;;;;4.20;2.20;;;;;;;17.00;100.00;95630.47;5042790;28;20641;-57
2023/09/21 03:12:37;;;;;;;2.45;2.00;;;;;;;17.00;100.00;95635.00;5043057;28;20215;-57
2023/09/21 03:15:06;;;;;;;1.90;1.80;;;;;;;17.00;100.00;95633.16;5042652;28;21496;-56
2023/09/21 03:17:34;;;;;;;2.20;2.00;;;;;;;17.01;100.00;95633.94;5044015;28;20203;-58
2023/09/21 03:20:11;;;;;;;3.08;2.33;;;;;;;16.99;100.00;95628.84;5041834;28;20232;-56
2023/09/21 03:22:39;;;;;;;2.53;1.83;;;;;;;16.99;100.00;95628.00;5043662;28;20688;-58
2023/09/21 03:25:11;;;;;;;1.85;1.75;;;;;;;16.97;100.00;95624.75;5042835;28;20219;-58
2023/09/21 03:27:38;;;;;;;2.08;1.98;;;;;;;16.97;100.00;95627.41;5042449;28;20235;-56
2023/09/21 03:30:06;;;;;;;2.65;2.35;;;;;;;16.99;100.00;95625.34;5043034;28;20624;-57
2023/09/21 03:32:32;;;;;;;3.53;2.33;;;;;;;16.98;100.00;95624.50;5042403;28;20225;-57
2023/09/21 03:34:59;;;;;;;2.30;2.10;;;;;;;16.99;100.00;95625.34;5041750;28;20199;-57
2023/09/21 03:37:26;;;;;;;2.95;2.05;;;;;;;16.98;100.00;95624.50;5042021;28;20210;-57
2023/09/21 03:39:54;;;;;;;3.38;2.05;;;;;;;16.98;100.00;95621.00;5043339;28;20199;-56
2023/09/21 03:42:22;;;;;;;2.65;2.10;;;;;;;17.03;100.00;95615.88;5043150;28;20215;-56
2023/09/21 03:44:49;;;;;;;2.50;2.30;;;;;;;17.02;100.00;95616.91;5042530;28;20303;-58
2023/09/21 03:47:17;;;;;;;3.03;2.08;;;;;;;17.03;100.00;95615.88;5042796;28;20209;-57
2023/09/21 03:49:44;;;;;;;4.95;2.10;;;;;;;17.03;100.00;95614.03;5042016;28;20202;-56
2023/09/21 03:52:16;;;;;;;5.50;2.13;;;;;;;17.01;100.00;95615.25;5042753;28;20304;-57
2023/09/21 03:54:42;;;;;;;2.63;2.42;;;;;;;17.04;100.00;95609.53;5042351;28;20196;-57
2023/09/21 03:57:11;;;;;;;3.30;2.40;;;;;;;17.02;100.00;95606.22;5042090;28;20212;-56
2023/09/21 03:59:37;;;;;;;2.72;2.25;;;;;;;17.00;100.00;95605.63;5042250;28;20211;-56
2023/09/21 04:02:04;;;;;;;2.10;2.00;;;;;;;17.03;100.00;95602.53;5041997;28;20203;-58
2023/09/21 04:04:31;;;;;;;2.35;2.00;;;;;;;17.00;100.00;95602.94;5042686;28;20215;-58
2023/09/21 04:06:57;;;;;;;2.38;2.17;;;;;;;16.99;100.00;95594.13;5043085;28;20195;-56
2023/09/21 04:09:24;;;;;;;5.78;2.25;;;;;;;17.00;100.00;95597.59;5042793;28;20207;-57
2023/09/21 04:11:50;;;;;;;2.30;2.20;;;;;;;17.01;100.00;95596.56;5041899;28;20231;-56
2023/09/21 04:14:18;;;;;;;2.65;2.45;;;;;;;17.01;100.00;95600.06;5042023;28;21389;-57
2023/09/21 04:16:45;;;;;;;2.30;2.00;;;;;;;17.00;100.00;95594.94;5041947;28;20222;-63
2023/09/21 04:19:14;;;;;;;5.18;3.17;;;;;;;17.01;100.00;95586.69;5041971;28;20208;-55
2023/09/21 04:21:40;;;;;;;4.43;2.10;;;;;;;17.01;100.00;95584.03;5042228;28;20203;-56
2023/09/21 04:24:08;;;;;;;2.42;2.30;;;;;;;17.04;100.00;95585.50;5043303;28;20208;-57
2023/09/21 04:26:34;;;;;;;2.90;2.28;;;;;;;17.01;100.00;95578.69;5042499;28;20345;-57
2023/09/21 04:29:01;;;;;;;2.83;2.45;;;;;;;17.03;100.00;95570.47;5041792;28;20202;-55
2023/09/21 04:31:28;;;;;;;2.67;2.47;;;;;;;17.02;100.00;95576.84;5042600;28;20227;-55
2023/09/21 04:33:56;;;;;;;2.70;2.50;;;;;;;17.03;100.00;95583.84;5042507;28;20199;-57
2023/09/21 04:36:24;;;;;;;2.40;2.30;;;;;;;17.01;100.00;95584.03;5042241;28;20218;-56
2023/09/21 04:38:51;;;;;;;3.83;2.25;;;;;;;17.01;100.00;95583.22;5041050;28;20208;-55
2023/09/21 04:41:18;;;;;;;2.90;2.70;;;;;;;17.00;100.00;95581.59;5042261;28;20195;-57
2023/09/21 04:43:45;;;;;;;2.72;2.53;;;;;;;16.97;100.00;95574.78;5042880;28;20210;-57
2023/09/21 04:46:13;;;;;;;4.85;3.10;;;;;;;17.00;100.00;95579.75;5042688;28;20226;-57
2023/09/21 04:48:41;;;;;;;2.72;2.50;;;;;;;17.00;100.00;95574.41;5040884;28;20203;-57
2023/09/21 04:51:08;;;;;;;3.15;2.60;;;;;;;16.99;100.00;95571.91;5041455;28;20211;-57
2023/09/21 04:53:34;;;;;;;2.85;2.53;;;;;;;16.98;100.00;95559.59;5042132;28;20262;-56
2023/09/21 04:56:01;;;;;;;4.18;2.80;;;;;;;16.99;100.00;95572.75;5041786;28;20204;-55
2023/09/21 04:58:27;;;;;;;2.85;2.67;;;;;;;16.96;100.00;95564.34;5041333;28;20218;-56
2023/09/21 05:00:54;;;;;;;2.92;2.38;;;;;;;16.97;100.00;95563.31;5042053;28;20536;-56
2023/09/21 05:03:20;;;;;;;3.60;2.92;;;;;;;16.96;100.00;95559.81;5040266;28;20254;-56
2023/09/21 05:05:49;;;;;;;3.10;2.65;;;;;;;16.98;100.00;95568.44;5041799;28;20207;-55
2023/09/21 05:08:15;;;;;;;3.08;2.47;;;;;;;16.95;100.00;95563.50;5041143;28;20352;-57
2023/09/21 05:10:42;;;;;;;3.22;2.80;;;;;;;16.97;100.00;95560.63;5044566;28;20219;-56
2023/09/21 05:13:08;;;;;;;3.00;2.70;;;;;;;16.94;100.00;95564.53;5044597;28;21596;-55
2023/09/21 05:15:35;;;;;;;2.95;2.70;;;;;;;16.93;100.00;95561.03;5045147;28;20203;-56
2023/09/21 05:18:01;;;;;;;5.97;4.00;;;;;;;17.01;100.00;95562.66;5045595;28;20222;-56
2023/09/21 05:20:28;;;;;;;3.58;3.28;;;;;;;17.00;100.00;95554.88;5044172;28;20854;-55
2023/09/21 05:22:55;;;;;;;5.03;3.08;;;;;;;16.98;100.00;95556.91;5046883;28;20208;-55
2023/09/21 05:25:22;;;;;;;2.38;2.15;;;;;;;16.98;100.00;95567.59;5046111;28;20209;-55
2023/09/21 05:27:49;;;;;;;3.25;2.95;;;;;;;16.99;100.00;95567.41;5046026;28;20231;-56
2023/09/21 05:30:18;;;;;;;2.78;2.58;;;;;;;16.97;100.00;95568.66;5046391;28;20638;-56
2023/09/21 05:32:45;;;;;;;3.55;2.63;;;;;;;16.99;100.00;95563.91;5046503;28;20286;-55
2023/09/21 05:35:16;;;;;;;3.10;2.80;;;;;;;17.01;100.00;95565.34;5051145;28;20298;-56
2023/09/21 05:37:42;;;;;;;3.28;2.88;;;;;;;17.04;100.00;95569.47;5056888;28;20210;-56
2023/09/21 05:40:11;;;;;;;3.53;2.63;;;;;;;17.06;100.00;95560.19;5051433;28;20212;-59
2023/09/21 05:42:41;;;;;;;2.92;2.63;;;;;;;17.06;100.00;95562.03;5045077;28;20199;-55
2023/09/21 05:45:10;;;;;;;3.30;3.10;;;;;;;17.06;100.00;95549.50;5044913;28;20217;-55
2023/09/21 05:47:36;;;;;;;3.53;2.92;;;;;;;17.08;100.00;95551.97;5045795;28;20199;-55
2023/09/21 05:50:05;;;;;;;2.55;2.45;;;;;;;17.10;100.00;95560.59;5044344;28;20222;-56
2023/09/21 05:52:33;;;;;;;2.88;2.65;;;;;;;17.09;100.00;95554.44;5045378;28;20215;-56
2023/09/21 05:55:00;;;;;;;2.88;2.67;;;;;;;17.09;100.00;95550.94;5049494;28;20203;-56
2023/09/21 05:57:28;;;;;;;2.97;2.67;;;;;;;17.09;100.00;95548.28;5056207;28;20199;-56
2023/09/21 05:59:55;;;;;;;3.22;2.95;;;;;;;17.10;100.00;95550.75;5056764;28;20204;-57
2023/09/21 06:02:22;;;;;;;3.60;3.30;;;;;;;17.14;100.00;95537.78;5049381;28;20207;-56
2023/09/21 06:04:48;;;;;;;4.63;2.97;;;;;;;17.18;100.00;95547.03;5044629;28;20203;-57
2023/09/21 06:07:15;;;;;;;3.70;3.30;;;;;;;17.22;100.00;95538.34;5044896;28;20218;-55
2023/09/21 06:09:44;;;;;;;3.25;2.95;;;;;;;17.27;100.00;95540.41;5044360;28;20222;-56
2023/09/21 06:12:11;;;;;;;3.38;3.10;;;;;;;17.31;100.00;95542.44;5043986;28;20449;-56
2023/09/21 06:14:39;;;;;;;3.30;3.00;;;;;;;17.38;100.00;95542.41;5044122;28;20203;-56
2023/09/21 06:17:06;;;;;;;3.13;2.90;;;;;;;17.47;100.00;95548.31;5045074;28;20208;-56
2023/09/21 06:19:33;;;;;;;3.55;3.25;;;;;;;17.52;100.00;95546.69;5043743;28;20302;-56
2023/09/21 06:22:00;;;;;;;3.97;3.25;;;;;;;17.64;100.00;95552.22;5043475;28;20689;-56
2023/09/21 06:24:26;;;;;;;4.10;3.00;;;;;;;17.68;100.00;95554.22;5044315;28;21414;-56
2023/09/21 06:26:53;;;;;;;3.78;2.65;;;;;;;17.78;100.00;95565.28;5043798;28;20239;-54
2023/09/21 06:29:22;;;;;;;3.53;2.92;;;;;;;17.86;100.00;95551.66;5044565;28;20212;-56
2023/09/21 06:31:54;;;;;;;3.85;3.10;;;;;;;17.95;100.00;95562.13;5043560;28;20227;-56
2023/09/21 06:34:24;;;;;;;3.55;3.25;;;;;;;17.96;100.00;95561.88;5044264;28;20211;-56
2023/09/21 06:36:50;;;;;;;3.35;3.05;;;;;;;18.02;100.00;95554.88;5044096;28;20541;-55
2023/09/21 06:39:18;;;;;;;3.63;3.30;;;;;;;18.07;100.00;95552.34;5044166;28;20207;-56
2023/09/21 06:41:47;;;;;;;3.92;3.60;;;;;;;18.15;100.00;95547.56;5044533;28;20598;-55
2023/09/21 06:44:14;;;;;;;3.90;3.70;;;;;;;18.24;100.00;95550.81;5044656;28;20620;-56
2023/09/21 06:46:41;;;;;;;4.10;3.70;;;;;;;18.32;100.00;95547.84;5044557;28;20290;-56
2023/09/21 06:49:10;;;;;;;4.47;3.92;;;;;;;18.36;100.00;95547.22;5043852;28;20208;-57
2023/09/21 06:51:37;;;;;;;4.53;4.10;;;;;;;18.43;100.00;95552.50;5043873;28;20230;-56
2023/09/21 06:54:04;;;;;;;6.60;4.13;;;;;;;18.50;100.00;95547.94;5043903;28;20243;-57
2023/09/21 06:56:31;;;;;;;4.32;3.92;;;;;;;18.53;100.00;95544.03;5043795;28;20238;-57
2023/09/21 06:58:57;;;;;;;4.97;4.03;;;;;;;18.54;100.00;95543.81;5044429;28;20211;-56
2023/09/21 07:01:26;;;;;;;4.40;3.55;;;;;;;18.61;100.00;95544.56;5044697;28;20208;-56
2023/09/21 07:03:52;;;;;;;4.40;3.60;;;;;;;18.64;100.00;95535.28;5044040;28;20203;-56
2023/09/21 07:06:20;;;;;;;6.25;3.95;;;;;;;18.66;100.00;95530.53;5044253;28;20203;-56
2023/09/21 07:08:47;;;;;;;5.63;3.42;;;;;;;18.69;100.00;95540.81;5042625;28;20195;-53
2023/09/21 07:11:14;;;;;;;5.03;3.72;;;;;;;18.67;100.00;95530.28;5043607;28;20215;-56
2023/09/21 07:13:42;;;;;;;4.50;3.72;;;;;;;18.68;100.00;95525.75;5043003;28;20228;-56
2023/09/21 07:16:09;;;;;;;5.65;3.33;;;;;;;18.72;100.00;95519.75;5043644;28;20293;-55
2023/09/21 07:18:37;;;;;;;5.10;3.40;;;;;;;18.73;100.00;95510.69;5042246;28;20202;-56
2023/09/21 07:21:03;;;;;;;4.00;3.60;;;;;;;18.73;100.00;95510.69;5043662;28;20230;-57
2023/09/21 07:23:31;;;;;;;4.55;3.50;;;;;;;18.72;100.00;95511.72;5043844;28;20202;-55
2023/09/21 07:25:58;;;;;;;4.40;3.28;;;;;;;18.78;100.00;95508.16;5043450;28;20223;-55
2023/09/21 07:28:25;;;;;;;3.53;3.20;;;;;;;18.82;100.00;95503.16;5043300;28;20204;-56
2023/09/21 07:30:52;;;;;;;3.50;3.20;;;;;;;18.88;100.00;95500.41;5043507;28;20210;-56
2023/09/21 07:33:20;;;;;;;4.05;3.08;;;;;;;18.95;100.00;95507.59;5042574;28;20273;-56
2023/09/21 07:35:47;;;;;;;3.72;3.17;;;;;;;19.02;100.00;95497.63;5043068;28;20647;-56
2023/09/21 07:38:13;;;;;;;4.07;2.45;;;;;;;19.09;100.00;95501.88;5042159;28;20655;-57
2023/09/21 07:40:41;;;;;;;3.60;2.70;;;;;;;19.16;100.00;95496.44;5043272;28;20208;-56
2023/09/21 07:43:09;;;;;;;5.20;2.85;;;;;;;19.20;100.00;95492.25;5043073;28;20215;-56
2023/09/21 07:45:35;;;;;;;2.70;2.50;;;;;;;19.25;100.00;95493.22;5042835;28;20210;-55
2023/09/21 07:48:02;;;;;;;3.20;3.00;;;;;;;19.32;100.00;95493.13;5043867;28;20303;-55
2023/09/21 07:50:34;;;;;;;3.10;2.60;;;;;;;19.39;100.00;95501.91;5042580;28;20207;-56
2023/09/21 07:53:03;;;;;;;2.97;2.60;;;;;;;19.44;100.00;95485.19;5042887;28;20220;-56
2023/09/21 07:55:30;;;;;;;3.72;2.65;;;;;;;19.51;100.00;95486.75;5042594;28;20221;-57
2023/09/21 07:58:00;;;;;;;3.17;2.88;;;;;;;19.63;100.00;95489.44;5042336;28;20232;-56
2023/09/21 08:00:26;;;;;;;3.75;3.17;;;;;;;19.69;100.00;95478.66;5043628;28;20210;-55
2023/09/21 08:02:53;;;;;;;2.92;2.45;;;;;;;19.77;100.00;95481.00;5042656;28;20196;-57
2023/09/21 08:05:20;;;;;;;6.05;2.92;;;;;;;19.83;100.00;95482.78;5042778;28;20987;-56
2023/09/21 08:07:49;;;;;;;2.70;2.50;;;;;;;19.96;100.00;95478.25;5042569;28;20199;-56
2023/09/21 08:10:16;;;;;;;2.92;2.35;;;;;;;20.08;100.00;95487.16;5043657;28;20199;-55
2023/09/21 08:12:42;;;;;;;4.85;2.75;;;;;;;20.15;100.00;95485.19;5043326;28;20231;-57
2023/09/21 08:15:11;;;;;;;5.30;2.75;;;;;;;20.20;100.00;95486.13;5043045;28;20531;-55
2023/09/21 08:17:38;;;;;;;5.60;3.10;;;;;;;20.20;100.00;95493.34;5042699;28;20212;-56
2023/09/21 08:20:09;;;;;;;2.88;2.67;;;;;;;20.19;100.00;95489.06;5043749;28;20211;-56
2023/09/21 08:22:36;;;;;;;5.25;2.92;;;;;;;20.17;100.00;95491.13;5048754;28;20659;-56
2023/09/21 08:25:04;;;;;;;4.47;3.03;;;;;;;20.24;100.00;95486.47;5050059;28;20212;-56
2023/09/21 08:27:30;;;;;;;4.13;2.90;;;;;;;20.31;100.00;95479.16;5047445;28;20227;-57
2023/09/21 08:29:57;;;;;;;4.05;3.25;;;;;;;20.27;100.00;95480.66;5047632;28;20204;-57
2023/09/21 08:32:25;;;;;;;2.85;2.63;;;;;;;20.34;100.00;95476.84;5047647;28;20298;-56
2023/09/21 08:34:52;;;;;;;4.45;2.83;;;;;;;20.38;100.00;95471.00;5041622;28;20297;-56
2023/09/21 08:37:19;;;;;;;3.58;2.50;;;;;;;20.41;100.00;95474.03;5041922;28;20207;-55
2023/09/21 08:39:45;;;;;;;5.03;2.90;;;;;;;20.53;100.00;95469.50;5042425;28;20207;-57
2023/09/21 08:42:12;;;;;;;2.65;2.42;;;;;;;20.75;100.00;95467.88;5042649;28;20229;-55
2023/09/21 08:44:39;;;;;;;2.95;2.58;;;;;;;20.93;100.00;95455.34;5049401;28;20233;-56
2023/09/21 08:47:07;;;;;;;4.75;2.40;;;;;;;21.13;100.00;95464.69;5053769;28;20610;-56
2023/09/21 08:49:36;;;;;;;4.38;2.70;;;;;;;21.41;100.00;95460.41;5052212;28;20658;-55
2023/09/21 08:52:03;;;;;;;4.68;3.03;;;;;;;21.70;100.00;95465.56;5049419;28;20211;-56
2023/09/21 08:54:30;;;;;;;2.80;2.60;;;;;;;21.89;100.00;95465.38;5047441;28;20643;-57
2023/09/21 08:56:57;;;;;;;4.38;2.78;;;;;;;22.17;100.00;95462.66;5047203;28;20204;-55
2023/09/21 08:59:25;;;;;;;4.63;2.75;;;;;;;22.40;100.00;95475.97;5045694;28;20210;-55
2023/09/21 09:01:52;;;;;;;5.47;2.65;;;;;;;22.65;100.00;95462.88;5046924;28;20195;-56
2023/09/21 09:04:19;;;;;;;3.60;2.80;;;;;;;22.84;99.99;95462.66;5044885;28;20207;-57
2023/09/21 09:06:47;;;;;;;2.90;2.50;;;;;;;23.01;98.62;95455.34;5046559;28;20209;-57
2023/09/21 09:09:15;;;;;;;3.20;2.60;;;;;;;23.18;96.80;95454.22;5046524;28;20211;-56
2023/09/21 09:11:45;;;;;;;3.63;2.80;;;;;;;23.35;95.67;95451.44;5046240;28;20207;-57
2023/09/21 09:14:16;;;;;;;3.22;3.03;;;;;;;23.48;94.00;95450.31;5045207;28;20309;-56
2023/09/21 09:16:43;;;;;;;3.53;2.53;;;;;;;23.52;92.53;95449.56;5046040;28;20235;-56
2023/09/21 09:19:11;;;;;;;3.10;2.60;;;;;;;23.73;90.92;95455.97;5044952;28;20650;-56
2023/09/21 09:21:39;;;;;;;2.58;2.38;;;;;;;23.90;92.85;95439.69;5046265;28;20238;-56
2023/09/21 09:24:08;;;;;;;3.33;3.13;;;;;;;24.05;90.12;95437.94;5045978;28;20278;-55
2023/09/21 09:26:35;;;;;;;3.30;3.00;;;;;;;24.39;90.12;95425.00;5045605;28;20242;-56
2023/09/21 09:29:06;;;;;;;5.30;2.50;;;;;;;24.58;86.71;95428.13;5046100;28;20203;-56
2023/09/21 09:31:33;;;;;;;2.97;2.78;;;;;;;24.56;84.87;95422.97;5045794;28;20265;-57
2023/09/21 09:34:01;;;;;;;3.05;2.75;;;;;;;24.85;79.97;95428.88;5044541;28;20687;-56
2023/09/21 09:36:28;;;;;;;3.10;2.40;;;;;;;25.00;81.53;95425.44;5045722;28;20714;-56
2023/09/21 09:38:55;;;;;;;3.42;2.53;;;;;;;25.16;80.95;95427.13;5045159;28;20223;-56
2023/09/21 09:41:23;;;;;;;2.88;2.30;;;;;;;25.19;80.18;95426.59;5045040;28;20210;-55
2023/09/21 09:43:51;;;;;;;3.58;2.55;;;;;;;25.01;79.24;95425.16;5045129;28;20203;-57
2023/09/21 09:46:22;;;;;;;3.63;2.55;;;;;;;25.49;79.68;95424.03;5045444;28;20210;-56
2023/09/21 09:48:49;;;;;;;2.58;2.38;;;;;;;25.69;76.00;95413.28;5045218;28;20215;-56
2023/09/21 09:51:21;;;;;;;3.83;2.28;;;;;;;25.48;75.84;95406.16;5045827;28;20283;-56
2023/09/21 09:53:48;;;;;;;2.90;2.60;;;;;;;25.37;76.96;95406.38;5045395;28;20334;-56
2023/09/21 09:56:17;;;;;;;3.38;3.10;;;;;;;25.65;74.81;95401.34;5044760;28;20216;-57
2023/09/21 09:58:47;;;;;;;4.50;3.50;;;;;;;25.70;73.77;95406.78;5044354;28;20261;-56
2023/09/21 10:01:14;;;;;;;2.28;2.17;;;;;;;25.68;75.19;95400.81;5045382;28;20631;-56
2023/09/21 10:03:43;;;;;;;3.08;2.40;;;;;;;25.87;74.76;95395.72;5044933;28;20551;-56
2023/09/21 10:06:10;;;;;;;4.20;2.17;;;;;;;25.92;76.45;95395.72;5048620;28;20203;-56
2023/09/21 10:08:38;;;;;;;2.63;2.40;;;;;;;25.98;75.84;95397.34;5048004;28;20207;-57
2023/09/21 10:11:06;;;;;;;2.78;2.58;;;;;;;26.00;75.74;95397.91;5045453;28;20269;-56
2023/09/21 10:13:33;;;;;;;2.70;2.45;;;;;;;25.82;73.01;95393.00;5044271;28;20530;-55
2023/09/21 10:16:04;;;;;;;3.42;2.78;;;;;;;25.48;75.09;95391.78;5044432;28;20204;-56
2023/09/21 10:18:35;;;;;;;2.45;2.25;;;;;;;25.15;76.63;95390.34;5044968;28;20278;-55
2023/09/21 10:21:16;;;;;;;2.67;2.50;;;;;;;24.74;78.77;95395.53;5044842;28;20231;-56
2023/09/21 10:24:18;;;;;;;2.70;2.42;;;;;;;24.82;80.27;95388.00;5046645;28;20191;-56
2023/09/21 10:26:45;;;;;;;2.70;2.50;;;;;;;24.92;81.00;95379.94;5047468;28;20401;-56
2023/09/21 10:29:12;;;;;;;2.60;2.40;;;;;;;25.08;80.53;95385.16;5047203;28;20202;-57
2023/09/21 10:31:43;;;;;;;2.72;2.58;;;;;;;25.31;78.47;95378.50;5046322;28;20204;-56
2023/09/21 10:34:13;;;;;;;2.78;2.58;;;;;;;25.57;75.25;95371.28;5043943;28;20212;-55
2023/09/21 10:36:46;;;;;;;2.90;2.60;;;;;;;25.64;75.41;95356.41;5044951;28;20199;-56
2023/09/21 10:39:28;;;;;;;4.82;2.72;;;;;;;25.74;75.88;95350.19;5044367;28;20548;-57
2023/09/21 10:41:56;;;;;;;3.50;2.72;;;;;;;26.13;75.71;95356.72;5043963;28;20223;-56
2023/09/21 10:45:02;;;;;;;3.40;3.05;;;;;;;26.21;74.93;95356.22;5044806;28;20207;-57
2023/09/21 10:47:41;;;;;;;2.50;2.30;;;;;;;26.43;75.79;95346.97;5045074;28;20302;-55
2023/09/21 10:50:11;;;;;;;2.63;2.42;;;;;;;26.59;72.67;95341.25;5044168;28;20199;-55
2023/09/21 10:52:39;;;;;;;2.53;2.35;;;;;;;26.79;69.70;95331.41;5044022;28;20211;-57
2023/09/21 10:55:07;;;;;;;4.85;2.40;;;;;;;26.64;70.07;95322.22;5044260;28;20296;-56
2023/09/21 10:57:34;;;;;;;2.75;2.55;;;;;;;26.61;69.85;95316.53;5045559;28;20207;-57
2023/09/21 11:00:00;;;;;;;2.50;2.30;;;;;;;27.08;71.66;95311.53;5045328;28;20653;-55
2023/09/21 11:02:32;;;;;;;2.50;2.30;;;;;;;27.06;66.84;95307.47;5046487;28;20310;-57
2023/09/21 11:05:00;;;;;;;2.78;2.38;;;;;;;26.90;69.19;95292.34;5047827;28;20192;-55
2023/09/21 11:07:28;;;;;;;2.40;2.22;;;;;;;27.04;70.06;95298.78;5045745;28;20199;-57
2023/09/21 11:09:55;;;;;;;3.17;2.22;;;;;;;27.28;70.69;95299.75;5045149;28;20195;-55
2023/09/21 11:12:22;;;;;;;2.65;2.38;;;;;;;27.25;69.41;95292.16;5043699;28;20218;-56
2023/09/21 11:14:49;;;;;;;2.60;2.40;;;;;;;27.07;72.46;95287.38;5043448;28;20247;-56
2023/09/21 11:17:17;;;;;;;2.63;2.42;;;;;;;27.03;70.24;95278.19;5044705;28;20233;-56
2023/09/21 11:19:46;;;;;;;2.65;2.30;;;;;;;26.68;75.80;95274.50;5043307;28;20228;-57
2023/09/21 11:22:13;;;;;;;2.88;2.67;;;;;;;26.31;74.39;95265.13;5044858;28;20200;-55
2023/09/21 11:24:40;;;;;;;3.15;2.25;;;;;;;26.25;72.15;95266.22;5043615;28;20204;-57
2023/09/21 11:27:09;;;;;;;3.15;2.95;;;;;;;26.14;72.91;95266.22;5043802;28;20315;-56
2023/09/21 11:29:39;;;;;;;3.33;3.03;;;;;;;26.25;71.49;95268.94;5044299;28;20225;-57